Time,TemperatureF,DewpointF,PressureIn,WindDirection,WindDirectionDegrees,WindSpeedMPH,WindSpeedGustMPH,Humidity,HourlyPrecipIn,Conditions,Clouds,dailyrainin,SoftwareType,DateUTC
2013-04-09 00:00:00,49.0,45.6,29.73,SSW,199,5.0,5.0,88,0.00,,,0.00,Wunderground v.1.15,2013-04-09 04:00:00,
2013-04-09 00:01:00,49.1,45.7,29.72,SW,217,2.0,5.0,88,0.00,,,0.00,Wunderground v.1.15,2013-04-09 04:01:00,
2013-04-09 00:02:00,49.2,45.8,29.72,SSW,203,4.0,5.0,88,0.00,,,0.00,Wunderground v.1.15,2013-04-09 04:02:00,
2013-04-09 00:04:00,49.3,45.9,29.72,SSW,200,4.0,5.0,88,0.00,,,0.00,Wunderground v.1.15,2013-04-09 04:04:00,
2013-04-09 00:10:00,49.6,45.9,29.72,SSW,203,3.0,3.0,87,0.00,,,0.00,Wunderground v.1.15,2013-04-09 04:10:00,
2013-04-09 00:15:00,49.9,46.2,29.72,South,190,2.0,3.0,87,0.00,,,0.00,Wunderground v.1.15,2013-04-09 04:15:00,
2013-04-09 00:22:00,50.3,46.3,29.71,SSW,209,2.0,3.0,86,0.00,,,0.00,Wunderground v.1.15,2013-04-09 04:22:00,
2013-04-09 00:28:00,51.0,47.0,29.71,SW,215,3.0,5.0,86,0.00,,,0.00,Wunderground v.1.15,2013-04-09 04:28:00,
2013-04-09 00:33:00,51.9,47.5,29.71,South,169,7.0,7.0,85,0.00,,,0.00,Wunderground v.1.15,2013-04-09 04:33:00,
2013-04-09 00:38:00,53.0,48.0,29.71,SW,225,2.0,7.0,83,0.00,,,0.00,Wunderground v.1.15,2013-04-09 04:38:00,
2013-04-09 00:45:00,54.1,48.4,29.72,SSW,213,3.0,5.0,81,0.00,,,0.00,Wunderground v.1.15,2013-04-09 04:45:00,
2013-04-09 00:50:00,55.0,48.9,29.73,WSW,239,3.0,4.0,80,0.00,,,0.00,Wunderground v.1.15,2013-04-09 04:50:00,
2013-04-09 00:55:00,55.5,48.8,29.77,WSW,238,11.0,18.0,78,0.00,,,0.00,Wunderground v.1.15,2013-04-09 04:55:00,
2013-04-09 01:01:00,54.7,48.6,29.77,WNW,302,7.0,8.0,80,0.00,,,0.00,Wunderground v.1.15,2013-04-09 05:01:00,
2013-04-09 01:07:00,52.4,47.7,29.78,NW,308,6.0,16.0,84,0.00,,,0.01,Wunderground v.1.15,2013-04-09 05:07:00,
2013-04-09 01:12:00,51.2,47.2,29.78,West,274,5.0,7.0,86,0.00,,,0.01,Wunderground v.1.15,2013-04-09 05:12:00,
2013-04-09 01:18:00,50.7,47.3,29.78,NW,312,2.0,7.0,88,0.00,,,0.01,Wunderground v.1.15,2013-04-09 05:18:00,
2013-04-09 01:23:00,50.7,47.6,29.78,West,274,1.0,3.0,89,0.00,,,0.01,Wunderground v.1.15,2013-04-09 05:23:00,
2013-04-09 01:28:00,50.6,47.8,29.78,West,274,0.0,3.0,90,0.00,,,0.01,Wunderground v.1.15,2013-04-09 05:28:00,
2013-04-09 01:34:00,50.5,48.0,29.78,West,279,1.0,2.0,91,0.00,,,0.01,Wunderground v.1.15,2013-04-09 05:34:00,
2013-04-09 01:39:00,50.8,48.6,29.78,West,263,3.0,5.0,92,0.00,,,0.01,Wunderground v.1.15,2013-04-09 05:39:00,
2013-04-09 01:45:00,52.3,50.3,29.78,WSW,254,5.0,6.0,93,0.00,,,0.01,Wunderground v.1.15,2013-04-09 05:45:00,
2013-04-09 01:50:00,54.0,51.1,29.78,West,269,7.0,7.0,90,0.00,,,0.01,Wunderground v.1.15,2013-04-09 05:50:00,
2013-04-09 01:55:00,55.3,51.5,29.78,West,262,6.0,7.0,87,0.00,,,0.01,Wunderground v.1.15,2013-04-09 05:55:00,
2013-04-09 02:01:00,56.6,51.8,29.78,West,272,6.0,7.0,84,0.00,,,0.01,Wunderground v.1.15,2013-04-09 06:01:00,
2013-04-09 02:06:00,56.9,51.5,29.79,WSW,255,11.0,13.0,82,0.00,,,0.01,Wunderground v.1.15,2013-04-09 06:06:00,
2013-04-09 02:11:00,57.2,51.4,29.79,WSW,252,7.0,7.0,81,0.00,,,0.01,Wunderground v.1.15,2013-04-09 06:11:00,
2013-04-09 02:16:00,57.3,51.5,29.80,West,273,6.0,13.0,81,0.00,,,0.01,Wunderground v.1.15,2013-04-09 06:16:00,
2013-04-09 02:21:00,57.3,51.2,29.80,WSW,240,11.0,11.0,80,0.00,,,0.01,Wunderground v.1.15,2013-04-09 06:21:00,
2013-04-09 02:26:00,57.1,51.0,29.80,West,279,6.0,14.0,80,0.00,,,0.01,Wunderground v.1.15,2013-04-09 06:26:00,
2013-04-09 02:31:00,56.8,51.0,29.80,West,274,6.0,8.0,81,0.00,,,0.01,Wunderground v.1.15,2013-04-09 06:31:00,
2013-04-09 02:36:00,56.6,50.5,29.81,North,355,17.0,17.0,80,0.00,,,0.01,Wunderground v.1.15,2013-04-09 06:36:00,
2013-04-09 02:41:00,56.3,50.2,29.81,West,265,5.0,9.0,80,0.00,,,0.01,Wunderground v.1.15,2013-04-09 06:41:00,
2013-04-09 02:46:00,55.9,49.8,29.81,WSW,251,12.0,16.0,80,0.00,,,0.01,Wunderground v.1.15,2013-04-09 06:46:00,
2013-04-09 02:51:00,55.7,49.6,29.81,WSW,248,7.0,8.0,80,0.00,,,0.01,Wunderground v.1.15,2013-04-09 06:51:00,
2013-04-09 02:56:00,55.4,49.7,29.81,West,261,4.0,13.0,81,0.00,,,0.01,Wunderground v.1.15,2013-04-09 06:56:00,
2013-04-09 03:01:00,55.2,49.5,29.81,WNW,284,6.0,8.0,81,0.00,,,0.01,Wunderground v.1.15,2013-04-09 07:01:00,
2013-04-09 03:06:00,55.1,49.4,29.81,WSW,255,9.0,14.0,81,0.00,,,0.01,Wunderground v.1.15,2013-04-09 07:06:00,
2013-04-09 03:11:00,55.0,49.3,29.82,West,273,4.0,10.0,81,0.00,,,0.01,Wunderground v.1.15,2013-04-09 07:11:00,
2013-04-09 03:17:00,54.9,49.2,29.82,WSW,252,5.0,13.0,81,0.00,,,0.01,Wunderground v.1.15,2013-04-09 07:17:00,
2013-04-09 03:22:00,54.6,49.2,29.82,WSW,254,8.0,8.0,82,0.00,,,0.01,Wunderground v.1.15,2013-04-09 07:22:00,
2013-04-09 03:27:00,54.5,49.1,29.82,NW,325,9.0,9.0,82,0.00,,,0.01,Wunderground v.1.15,2013-04-09 07:27:00,
2013-04-09 03:32:00,54.5,49.1,29.83,West,266,6.0,8.0,82,0.00,,,0.01,Wunderground v.1.15,2013-04-09 07:32:00,
2013-04-09 03:37:00,54.4,49.0,29.83,West,274,4.0,9.0,82,0.00,,,0.01,Wunderground v.1.15,2013-04-09 07:37:00,
2013-04-09 03:42:00,54.3,48.6,29.83,West,265,8.0,12.0,81,0.00,,,0.01,Wunderground v.1.15,2013-04-09 07:42:00,
2013-04-09 03:47:00,54.1,48.4,29.83,West,275,5.0,12.0,81,0.00,,,0.01,Wunderground v.1.15,2013-04-09 07:47:00,
2013-04-09 03:52:00,54.0,48.3,29.83,SSW,211,8.0,12.0,81,0.00,,,0.01,Wunderground v.1.15,2013-04-09 07:52:00,
2013-04-09 03:57:00,53.9,48.2,29.84,West,264,4.0,17.0,81,0.00,,,0.01,Wunderground v.1.15,2013-04-09 07:57:00,
2013-04-09 04:03:00,53.7,48.0,29.84,WNW,296,6.0,8.0,81,0.00,,,0.01,Wunderground v.1.15,2013-04-09 08:03:00,
2013-04-09 04:08:00,53.4,48.0,29.85,WSW,256,4.0,14.0,82,0.00,,,0.01,Wunderground v.1.15,2013-04-09 08:08:00,
2013-04-09 04:13:00,53.1,47.7,29.85,WNW,285,4.0,14.0,82,0.00,,,0.01,Wunderground v.1.15,2013-04-09 08:13:00,
2013-04-09 04:18:00,52.8,47.5,29.86,West,262,5.0,15.0,82,0.00,,,0.01,Wunderground v.1.15,2013-04-09 08:18:00,
2013-04-09 04:23:00,52.4,47.1,29.86,West,263,7.0,13.0,82,0.00,,,0.01,Wunderground v.1.15,2013-04-09 08:23:00,
2013-04-09 04:28:00,51.8,46.5,29.87,West,276,4.0,15.0,82,0.00,,,0.01,Wunderground v.1.15,2013-04-09 08:28:00,
2013-04-09 04:33:00,51.4,46.4,29.87,WNW,296,6.0,10.0,83,0.00,,,0.01,Wunderground v.1.15,2013-04-09 08:33:00,
2013-04-09 04:38:00,51.0,46.3,29.88,West,273,9.0,13.0,84,0.00,,,0.01,Wunderground v.1.15,2013-04-09 08:38:00,
2013-04-09 04:43:00,50.8,46.5,29.88,WNW,283,3.0,11.0,85,0.00,,,0.01,Wunderground v.1.15,2013-04-09 08:43:00,
2013-04-09 04:48:00,50.8,46.5,29.89,West,261,16.0,18.0,85,0.00,,,0.01,Wunderground v.1.15,2013-04-09 08:48:00,
2013-04-09 04:53:00,50.8,46.5,29.89,WNW,282,11.0,11.0,85,0.00,,,0.01,Wunderground v.1.15,2013-04-09 08:53:00,
2013-04-09 04:58:00,50.8,46.5,29.89,WSW,240,7.0,22.0,85,0.00,,,0.01,Wunderground v.1.15,2013-04-09 08:58:00,
2013-04-09 05:03:00,50.6,46.3,29.89,NW,317,4.0,12.0,85,0.00,,,0.01,Wunderground v.1.15,2013-04-09 09:03:00,
2013-04-09 05:08:00,50.6,46.3,29.90,West,268,6.0,15.0,85,0.00,,,0.01,Wunderground v.1.15,2013-04-09 09:08:00,
2013-04-09 05:13:00,50.4,46.1,29.90,West,264,5.0,10.0,85,0.00,,,0.01,Wunderground v.1.15,2013-04-09 09:13:00,
2013-04-09 05:18:00,50.3,46.0,29.90,West,275,6.0,20.0,85,0.00,,,0.01,Wunderground v.1.15,2013-04-09 09:18:00,
2013-04-09 05:23:00,50.2,45.9,29.91,NW,317,11.0,16.0,85,0.00,,,0.01,Wunderground v.1.15,2013-04-09 09:23:00,
2013-04-09 05:28:00,50.1,46.1,29.91,WNW,297,10.0,20.0,86,0.00,,,0.01,Wunderground v.1.15,2013-04-09 09:28:00,
2013-04-09 05:33:00,50.1,45.8,29.92,West,259,9.0,17.0,85,0.00,,,0.01,Wunderground v.1.15,2013-04-09 09:33:00,
2013-04-09 05:38:00,50.0,45.7,29.92,WSW,255,9.0,19.0,85,0.00,,,0.01,Wunderground v.1.15,2013-04-09 09:38:00,
2013-04-09 05:43:00,49.8,45.5,29.92,West,263,10.0,18.0,85,0.00,,,0.01,Wunderground v.1.15,2013-04-09 09:43:00,
2013-04-09 05:48:00,49.6,45.6,29.92,West,269,7.0,18.0,86,0.00,,,0.01,Wunderground v.1.15,2013-04-09 09:48:00,
2013-04-09 05:53:00,49.5,45.5,29.93,NW,312,7.0,12.0,86,0.00,,,0.01,Wunderground v.1.15,2013-04-09 09:53:00,
2013-04-09 05:58:00,49.4,45.4,29.94,West,281,7.0,15.0,86,0.00,,,0.01,Wunderground v.1.15,2013-04-09 09:58:00,
2013-04-09 06:03:00,49.4,45.4,29.93,WNW,295,9.0,12.0,86,0.00,,,0.01,Wunderground v.1.15,2013-04-09 10:03:00,
2013-04-09 06:08:00,49.2,45.2,29.94,WNW,298,8.0,15.0,86,0.00,,,0.01,Wunderground v.1.15,2013-04-09 10:08:00,
2013-04-09 06:13:00,49.0,45.3,29.95,West,281,6.0,20.0,87,0.00,,,0.01,Wunderground v.1.15,2013-04-09 10:13:00,
2013-04-09 06:18:00,48.8,45.1,29.95,WNW,289,6.0,20.0,87,0.00,,,0.01,Wunderground v.1.15,2013-04-09 10:18:00,
2013-04-09 06:23:00,48.6,44.6,29.95,NNE,17,6.0,18.0,86,0.00,,,0.01,Wunderground v.1.15,2013-04-09 10:23:00,
2013-04-09 06:28:00,47.8,43.8,29.96,WNW,302,8.0,18.0,86,0.00,,,0.01,Wunderground v.1.15,2013-04-09 10:28:00,
2013-04-09 06:33:00,46.8,43.1,29.97,WNW,284,6.0,14.0,87,0.00,,,0.01,Wunderground v.1.15,2013-04-09 10:33:00,
2013-04-09 06:38:00,46.3,42.6,29.98,WNW,286,6.0,25.0,87,0.00,,,0.01,Wunderground v.1.15,2013-04-09 10:38:00,
2013-04-09 06:43:00,45.9,42.2,29.99,WNW,284,3.0,24.0,87,0.00,,,0.01,Wunderground v.1.15,2013-04-09 10:43:00,
2013-04-09 06:48:00,45.7,42.1,29.99,West,273,7.0,24.0,87,0.00,,,0.01,Wunderground v.1.15,2013-04-09 10:48:00,
2013-04-09 06:53:00,45.6,41.7,30.00,NNW,342,6.0,14.0,86,0.00,,,0.01,Wunderground v.1.15,2013-04-09 10:53:00,
2013-04-09 06:58:00,45.4,41.5,30.00,West,278,10.0,14.0,86,0.00,,,0.01,Wunderground v.1.15,2013-04-09 10:58:00,
2013-04-09 07:03:00,45.2,41.3,30.00,West,279,10.0,16.0,86,0.00,,,0.01,Wunderground v.1.15,2013-04-09 11:03:00,
2013-04-09 07:08:00,45.1,41.5,30.01,WNW,283,6.0,16.0,87,0.00,,,0.01,Wunderground v.1.15,2013-04-09 11:08:00,
2013-04-09 07:13:00,45.0,41.4,30.01,NW,316,7.0,13.0,87,0.00,,,0.01,Wunderground v.1.15,2013-04-09 11:13:00,
2013-04-09 07:19:00,45.0,41.4,30.02,NW,310,6.0,13.0,87,0.00,,,0.01,Wunderground v.1.15,2013-04-09 11:19:00,
2013-04-09 07:24:00,45.0,41.4,30.02,West,269,5.0,12.0,87,0.00,,,0.01,Wunderground v.1.15,2013-04-09 11:24:00,
2013-04-09 07:29:00,44.9,41.3,30.02,WNW,293,3.0,12.0,87,0.00,,,0.01,Wunderground v.1.15,2013-04-09 11:29:00,
2013-04-09 07:34:00,44.9,41.3,30.03,NW,312,7.0,12.0,87,0.00,,,0.01,Wunderground v.1.15,2013-04-09 11:34:00,
2013-04-09 07:39:00,44.9,41.3,30.03,West,269,7.0,12.0,87,0.00,,,0.01,Wunderground v.1.15,2013-04-09 11:39:00,
2013-04-09 07:44:00,44.9,41.3,30.03,WNW,298,7.0,12.0,87,0.00,,,0.01,Wunderground v.1.15,2013-04-09 11:44:00,
2013-04-09 07:49:00,44.9,41.3,30.03,West,275,5.0,7.0,87,0.00,,,0.01,Wunderground v.1.15,2013-04-09 11:49:00,
2013-04-09 07:55:00,44.9,41.3,30.04,West,271,5.0,10.0,87,0.00,,,0.01,Wunderground v.1.15,2013-04-09 11:55:00,
2013-04-09 08:00:00,44.9,41.3,30.05,West,265,7.0,7.0,87,0.00,,,0.01,Wunderground v.1.15,2013-04-09 12:00:00,
2013-04-09 08:05:00,44.9,41.3,30.05,WNW,296,5.0,13.0,87,0.00,,,0.01,Wunderground v.1.15,2013-04-09 12:05:00,
2013-04-09 08:10:00,44.8,41.2,30.05,NNW,330,4.0,6.0,87,0.00,,,0.01,Wunderground v.1.15,2013-04-09 12:10:00,
2013-04-09 08:15:00,44.8,41.2,30.05,West,278,3.0,7.0,87,0.00,,,0.01,Wunderground v.1.15,2013-04-09 12:15:00,
2013-04-09 08:20:00,44.7,41.1,30.05,North,9,3.0,6.0,87,0.00,,,0.01,Wunderground v.1.15,2013-04-09 12:20:00,
2013-04-09 08:25:00,44.7,41.1,30.05,WNW,286,3.0,10.0,87,0.00,,,0.01,Wunderground v.1.15,2013-04-09 12:25:00,
2013-04-09 08:30:00,44.6,41.0,30.05,West,263,7.0,7.0,87,0.00,,,0.01,Wunderground v.1.15,2013-04-09 12:30:00,
2013-04-09 08:35:00,44.6,41.3,30.06,NW,310,6.0,7.0,88,0.00,,,0.01,Wunderground v.1.15,2013-04-09 12:35:00,
2013-04-09 08:40:00,44.5,40.9,30.06,WNW,286,5.0,7.0,87,0.00,,,0.01,Wunderground v.1.15,2013-04-09 12:40:00,
2013-04-09 08:45:00,44.5,40.9,30.07,WNW,286,4.0,12.0,87,0.00,,,0.01,Wunderground v.1.15,2013-04-09 12:45:00,
2013-04-09 08:50:00,44.5,40.9,30.06,NNW,328,2.0,6.0,87,0.00,,,0.01,Wunderground v.1.15,2013-04-09 12:50:00,
2013-04-09 08:55:00,44.4,40.8,30.07,WSW,253,5.0,11.0,87,0.00,,,0.01,Wunderground v.1.15,2013-04-09 12:55:00,
2013-04-09 09:00:00,44.3,40.7,30.07,West,277,5.0,10.0,87,0.00,,,0.01,Wunderground v.1.15,2013-04-09 13:00:00,
2013-04-09 09:05:00,44.0,40.7,30.07,WNW,284,2.0,10.0,88,0.00,,,0.01,Wunderground v.1.15,2013-04-09 13:05:00,
2013-04-09 09:10:00,43.9,40.6,30.07,WNW,294,11.0,11.0,88,0.00,,,0.01,Wunderground v.1.15,2013-04-09 13:10:00,
2013-04-09 09:15:00,43.8,40.5,30.07,WNW,303,6.0,12.0,88,0.00,,,0.01,Wunderground v.1.15,2013-04-09 13:15:00,
2013-04-09 09:20:00,43.8,40.5,30.08,West,260,5.0,7.0,88,0.00,,,0.01,Wunderground v.1.15,2013-04-09 13:20:00,
2013-04-09 09:26:00,43.8,40.5,30.08,North,349,3.0,11.0,88,0.00,,,0.01,Wunderground v.1.15,2013-04-09 13:26:00,
2013-04-09 09:31:00,43.9,40.6,30.08,NW,304,8.0,8.0,88,0.00,,,0.01,Wunderground v.1.15,2013-04-09 13:31:00,
2013-04-09 09:36:00,43.9,40.6,30.07,West,281,6.0,12.0,88,0.00,,,0.01,Wunderground v.1.15,2013-04-09 13:36:00,
2013-04-09 09:41:00,44.0,40.7,30.08,North,360,7.0,7.0,88,0.00,,,0.01,Wunderground v.1.15,2013-04-09 13:41:00,
2013-04-09 09:46:00,44.1,40.5,30.08,NW,315,4.0,11.0,87,0.00,,,0.01,Wunderground v.1.15,2013-04-09 13:46:00,
2013-04-09 09:51:00,44.1,40.5,30.08,WNW,294,5.0,5.0,87,0.00,,,0.01,Wunderground v.1.15,2013-04-09 13:51:00,
2013-04-09 09:56:00,44.1,40.5,30.09,NNW,330,4.0,10.0,87,0.00,,,0.01,Wunderground v.1.15,2013-04-09 13:56:00,
2013-04-09 10:02:00,44.1,40.5,30.09,WNW,294,4.0,6.0,87,0.00,,,0.01,Wunderground v.1.15,2013-04-09 14:02:00,
2013-04-09 10:07:00,44.1,40.5,30.08,WNW,284,3.0,8.0,87,0.00,,,0.01,Wunderground v.1.15,2013-04-09 14:07:00,
2013-04-09 10:12:00,44.2,40.6,30.09,West,273,3.0,6.0,87,0.00,,,0.01,Wunderground v.1.15,2013-04-09 14:12:00,
2013-04-09 10:17:00,44.3,40.7,30.09,WNW,302,3.0,7.0,87,0.00,,,0.01,Wunderground v.1.15,2013-04-09 14:17:00,
2013-04-09 10:22:00,44.4,40.8,30.09,NW,322,3.0,7.0,87,0.00,,,0.01,Wunderground v.1.15,2013-04-09 14:22:00,
2013-04-09 10:27:00,44.6,41.3,30.09,West,277,5.0,7.0,88,0.00,,,0.01,Wunderground v.1.15,2013-04-09 14:27:00,
2013-04-09 10:32:00,44.6,41.0,30.09,WNW,303,3.0,6.0,87,0.00,,,0.01,Wunderground v.1.15,2013-04-09 14:32:00,
2013-04-09 10:37:00,44.6,41.0,30.09,North,360,1.0,8.0,87,0.00,,,0.01,Wunderground v.1.15,2013-04-09 14:37:00,
2013-04-09 10:42:00,44.8,41.2,30.09,WNW,302,1.0,3.0,87,0.00,,,0.01,Wunderground v.1.15,2013-04-09 14:42:00,
2013-04-09 10:47:00,45.0,41.4,30.09,WNW,286,5.0,6.0,87,0.00,,,0.01,Wunderground v.1.15,2013-04-09 14:47:00,
2013-04-09 10:52:00,45.1,41.2,30.09,NNW,328,5.0,7.0,86,0.00,,,0.01,Wunderground v.1.15,2013-04-09 14:52:00,
2013-04-09 10:57:00,44.9,41.0,30.09,North,350,3.0,8.0,86,0.00,,,0.01,Wunderground v.1.15,2013-04-09 14:57:00,
2013-04-09 11:02:00,45.1,41.2,30.09,NW,317,2.0,5.0,86,0.00,,,0.01,Wunderground v.1.15,2013-04-09 15:02:00,
2013-04-09 11:07:00,45.6,42.0,30.10,NW,311,1.0,7.0,87,0.00,,,0.01,Wunderground v.1.15,2013-04-09 15:07:00,
2013-04-09 11:13:00,46.0,41.7,30.10,WNW,296,7.0,9.0,85,0.00,,,0.01,Wunderground v.1.15,2013-04-09 15:13:00,
2013-04-09 11:18:00,45.6,41.4,30.10,NNW,338,3.0,9.0,85,0.00,,,0.01,Wunderground v.1.15,2013-04-09 15:18:00,
2013-04-09 11:23:00,45.9,41.6,30.10,NW,324,0.0,8.0,85,0.00,,,0.01,Wunderground v.1.15,2013-04-09 15:23:00,
2013-04-09 11:28:00,46.2,41.6,30.10,NNW,346,3.0,9.0,84,0.00,,,0.01,Wunderground v.1.15,2013-04-09 15:28:00,
2013-04-09 11:33:00,46.3,42.0,30.10,WNW,294,6.0,8.0,85,0.00,,,0.01,Wunderground v.1.15,2013-04-09 15:33:00,
2013-04-09 11:38:00,46.3,41.7,30.10,North,355,6.0,10.0,84,0.00,,,0.01,Wunderground v.1.15,2013-04-09 15:38:00,
2013-04-09 11:43:00,47.0,42.1,30.10,WNW,298,2.0,7.0,83,0.00,,,0.01,Wunderground v.1.15,2013-04-09 15:43:00,
2013-04-09 11:48:00,47.4,42.2,30.09,NE,41,6.0,11.0,82,0.00,,,0.01,Wunderground v.1.15,2013-04-09 15:48:00,
2013-04-09 11:53:00,48.1,42.5,30.09,NNE,15,9.0,9.0,81,0.00,,,0.01,Wunderground v.1.15,2013-04-09 15:53:00,
2013-04-09 11:58:00,48.8,42.9,30.09,North,11,10.0,11.0,80,0.00,,,0.01,Wunderground v.1.15,2013-04-09 15:58:00,
2013-04-09 12:03:00,49.5,42.6,30.09,West,279,7.0,8.0,77,0.00,,,0.01,Wunderground v.1.15,2013-04-09 16:03:00,
2013-04-09 12:08:00,48.9,42.7,30.09,WNW,285,2.0,8.0,79,0.00,,,0.01,Wunderground v.1.15,2013-04-09 16:08:00,
2013-04-09 12:13:00,48.5,42.0,30.08,WNW,285,4.0,6.0,78,0.00,,,0.01,Wunderground v.1.15,2013-04-09 16:13:00,
2013-04-09 12:18:00,47.9,41.7,30.08,WNW,300,2.0,7.0,79,0.00,,,0.01,Wunderground v.1.15,2013-04-09 16:18:00,
2013-04-09 12:23:00,48.4,42.8,30.08,NW,307,3.0,8.0,81,0.00,,,0.01,Wunderground v.1.15,2013-04-09 16:23:00,
2013-04-09 12:28:00,49.1,42.9,30.08,WNW,298,4.0,8.0,79,0.00,,,0.01,Wunderground v.1.15,2013-04-09 16:28:00,
2013-04-09 12:33:00,49.2,43.0,30.08,North,360,7.0,7.0,79,0.00,,,0.01,Wunderground v.1.15,2013-04-09 16:33:00,
2013-04-09 12:38:00,50.7,44.1,30.08,NNE,15,10.0,11.0,78,0.00,,,0.01,Wunderground v.1.15,2013-04-09 16:38:00,
2013-04-09 12:43:00,51.6,43.6,30.08,NNE,17,8.0,11.0,74,0.00,,,0.01,Wunderground v.1.15,2013-04-09 16:43:00,
2013-04-09 12:48:00,52.1,44.1,30.08,East,82,6.0,11.0,74,0.00,,,0.01,Wunderground v.1.15,2013-04-09 16:48:00,
2013-04-09 12:53:00,52.8,44.0,30.07,NNE,27,6.0,7.0,72,0.00,,,0.01,Wunderground v.1.15,2013-04-09 16:53:00,
2013-04-09 12:58:00,53.5,44.7,30.07,NNE,19,5.0,9.0,72,0.00,,,0.01,Wunderground v.1.15,2013-04-09 16:58:00,
2013-04-09 13:03:00,53.9,44.3,30.07,North,11,9.0,11.0,70,0.00,,,0.01,Wunderground v.1.15,2013-04-09 17:03:00,
2013-04-09 13:08:00,53.8,43.9,30.07,North,355,3.0,12.0,69,0.00,,,0.01,Wunderground v.1.15,2013-04-09 17:08:00,
2013-04-09 13:13:00,53.3,43.8,30.07,NE,40,5.0,10.0,70,0.00,,,0.01,Wunderground v.1.15,2013-04-09 17:13:00,
2013-04-09 13:19:00,53.0,43.8,30.06,NNE,16,9.0,10.0,71,0.00,,,0.01,Wunderground v.1.15,2013-04-09 17:19:00,
2013-04-09 13:24:00,52.8,43.3,30.06,NNE,14,10.0,10.0,70,0.00,,,0.01,Wunderground v.1.15,2013-04-09 17:24:00,
2013-04-09 13:29:00,52.3,43.2,30.06,North,5,4.0,10.0,71,0.00,,,0.01,Wunderground v.1.15,2013-04-09 17:29:00,
2013-04-09 13:34:00,52.1,43.3,30.05,NNE,33,6.0,11.0,72,0.00,,,0.01,Wunderground v.1.15,2013-04-09 17:34:00,
2013-04-09 13:39:00,52.3,43.5,30.05,North,9,4.0,11.0,72,0.00,,,0.01,Wunderground v.1.15,2013-04-09 17:39:00,
2013-04-09 13:44:00,52.2,43.1,30.04,ENE,65,2.0,10.0,71,0.00,,,0.01,Wunderground v.1.15,2013-04-09 17:44:00,
2013-04-09 13:49:00,52.1,43.3,30.04,NNE,25,7.0,10.0,72,0.00,,,0.01,Wunderground v.1.15,2013-04-09 17:49:00,
2013-04-09 13:54:00,52.5,44.4,30.04,NNE,15,6.0,10.0,74,0.00,,,0.01,Wunderground v.1.15,2013-04-09 17:54:00,
2013-04-09 13:59:00,52.9,43.7,30.04,NNE,31,8.0,10.0,71,0.00,,,0.01,Wunderground v.1.15,2013-04-09 17:59:00,
2013-04-09 14:04:00,53.0,43.8,30.04,NNE,16,5.0,10.0,71,0.00,,,0.01,Wunderground v.1.15,2013-04-09 18:04:00,
2013-04-09 14:09:00,53.3,43.4,30.04,North,350,2.0,10.0,69,0.00,,,0.01,Wunderground v.1.15,2013-04-09 18:09:00,
2013-04-09 14:14:00,53.3,43.8,30.04,North,5,3.0,8.0,70,0.00,,,0.01,Wunderground v.1.15,2013-04-09 18:14:00,
2013-04-09 14:20:00,53.6,44.0,30.03,NE,42,2.0,4.0,70,0.00,,,0.01,Wunderground v.1.15,2013-04-09 18:20:00,
2013-04-09 14:25:00,54.2,45.0,30.04,NE,35,2.0,10.0,71,0.00,,,0.01,Wunderground v.1.15,2013-04-09 18:25:00,
2013-04-09 14:30:00,54.5,44.2,30.04,ENE,78,4.0,7.0,68,0.00,,,0.01,Wunderground v.1.15,2013-04-09 18:30:00,
2013-04-09 14:35:00,55.0,44.6,30.04,NNE,23,5.0,9.0,68,0.00,,,0.01,Wunderground v.1.15,2013-04-09 18:35:00,
2013-04-09 14:40:00,55.0,44.6,30.03,East,96,7.0,7.0,68,0.00,,,0.01,Wunderground v.1.15,2013-04-09 18:40:00,
2013-04-09 14:45:00,55.2,44.8,30.02,NNE,29,1.0,7.0,68,0.00,,,0.01,Wunderground v.1.15,2013-04-09 18:45:00,
2013-04-09 14:50:00,55.6,44.8,30.03,NNE,32,2.0,6.0,67,0.00,,,0.01,Wunderground v.1.15,2013-04-09 18:50:00,
2013-04-09 14:55:00,55.8,45.4,30.03,ENE,63,4.0,6.0,68,0.00,,,0.01,Wunderground v.1.15,2013-04-09 18:55:00,
2013-04-09 15:00:00,55.9,45.1,30.03,NE,52,5.0,5.0,67,0.00,,,0.01,Wunderground v.1.15,2013-04-09 19:00:00,
2013-04-09 15:05:00,55.8,44.6,30.03,North,5,5.0,10.0,66,0.00,,,0.01,Wunderground v.1.15,2013-04-09 19:05:00,
2013-04-09 15:10:00,55.8,44.6,30.03,ENE,66,4.0,6.0,66,0.00,,,0.01,Wunderground v.1.15,2013-04-09 19:10:00,
2013-04-09 15:15:00,55.2,44.8,30.02,NE,38,3.0,9.0,68,0.00,,,0.01,Wunderground v.1.15,2013-04-09 19:15:00,
2013-04-09 15:20:00,54.8,44.4,30.02,ENE,76,4.0,7.0,68,0.00,,,0.01,Wunderground v.1.15,2013-04-09 19:20:00,
2013-04-09 15:25:00,54.5,44.2,30.02,NNE,19,9.0,11.0,68,0.00,,,0.01,Wunderground v.1.15,2013-04-09 19:25:00,
2013-04-09 15:30:00,54.2,44.2,30.01,NNE,31,3.0,8.0,69,0.00,,,0.01,Wunderground v.1.15,2013-04-09 19:30:00,
2013-04-09 15:35:00,54.0,43.7,30.01,ENE,65,5.0,10.0,68,0.00,,,0.01,Wunderground v.1.15,2013-04-09 19:35:00,
2013-04-09 15:40:00,53.7,43.8,30.01,East,79,5.0,7.0,69,0.00,,,0.01,Wunderground v.1.15,2013-04-09 19:40:00,
2013-04-09 15:45:00,53.6,43.7,30.01,NNE,23,6.0,10.0,69,0.00,,,0.01,Wunderground v.1.15,2013-04-09 19:45:00,
2013-04-09 15:50:00,53.5,43.6,30.00,North,355,8.0,8.0,69,0.00,,,0.01,Wunderground v.1.15,2013-04-09 19:50:00,
2013-04-09 15:55:00,53.7,43.8,30.00,North,11,7.0,12.0,69,0.00,,,0.01,Wunderground v.1.15,2013-04-09 19:55:00,
2013-04-09 16:00:00,53.8,43.9,29.99,North,9,7.0,8.0,69,0.00,,,0.01,Wunderground v.1.15,2013-04-09 20:00:00,
2013-04-09 16:05:00,53.7,43.4,29.99,NNE,25,5.0,8.0,68,0.00,,,0.01,Wunderground v.1.15,2013-04-09 20:05:00,
2013-04-09 16:10:00,53.4,43.5,29.99,ESE,117,9.0,11.0,69,0.00,,,0.01,Wunderground v.1.15,2013-04-09 20:10:00,
2013-04-09 16:15:00,52.8,42.9,29.99,ENE,69,4.0,11.0,69,0.00,,,0.01,Wunderground v.1.15,2013-04-09 20:15:00,
2013-04-09 16:20:00,52.4,43.3,29.99,NNE,26,3.0,5.0,71,0.00,,,0.01,Wunderground v.1.15,2013-04-09 20:20:00,
2013-04-09 16:25:00,52.1,42.6,29.99,ENE,72,9.0,9.0,70,0.00,,,0.01,Wunderground v.1.15,2013-04-09 20:25:00,
2013-04-09 16:30:00,51.4,42.7,29.98,ENE,57,4.0,6.0,72,0.00,,,0.01,Wunderground v.1.15,2013-04-09 20:30:00,
2013-04-09 16:35:00,51.0,42.6,29.98,North,5,8.0,9.0,73,0.00,,,0.01,Wunderground v.1.15,2013-04-09 20:35:00,
2013-04-09 16:40:00,50.4,42.1,29.98,NNE,32,5.0,8.0,73,0.00,,,0.01,Wunderground v.1.15,2013-04-09 20:40:00,
2013-04-09 16:46:00,50.0,42.4,29.98,North,9,8.0,9.0,75,0.00,,,0.01,Wunderground v.1.15,2013-04-09 20:46:00,
2013-04-09 16:51:00,49.5,41.9,29.99,NNE,13,3.0,6.0,75,0.00,,,0.01,Wunderground v.1.15,2013-04-09 20:51:00,
2013-04-09 16:56:00,49.4,42.1,29.99,NNE,15,6.0,8.0,76,0.00,,,0.01,Wunderground v.1.15,2013-04-09 20:56:00,
2013-04-09 17:01:00,49.2,42.0,30.00,North,10,6.0,7.0,76,0.00,,,0.01,Wunderground v.1.15,2013-04-09 21:01:00,
2013-04-09 17:06:00,49.1,41.9,30.00,NNE,24,6.0,10.0,76,0.00,,,0.01,Wunderground v.1.15,2013-04-09 21:06:00,
2013-04-09 17:11:00,48.9,42.0,30.01,NE,36,2.0,7.0,77,0.00,,,0.01,Wunderground v.1.15,2013-04-09 21:11:00,
2013-04-09 17:16:00,48.5,41.6,30.01,NNE,15,4.0,7.0,77,0.00,,,0.01,Wunderground v.1.15,2013-04-09 21:16:00,
2013-04-09 17:21:00,48.3,41.8,30.02,NNE,16,3.0,6.0,78,0.00,,,0.01,Wunderground v.1.15,2013-04-09 21:21:00,
2013-04-09 17:26:00,48.2,41.7,30.01,NNE,13,6.0,8.0,78,0.00,,,0.01,Wunderground v.1.15,2013-04-09 21:26:00,
2013-04-09 17:31:00,48.0,41.5,30.01,North,5,5.0,6.0,78,0.00,,,0.01,Wunderground v.1.15,2013-04-09 21:31:00,
2013-04-09 17:36:00,47.8,41.6,30.01,NNE,13,5.0,8.0,79,0.00,,,0.01,Wunderground v.1.15,2013-04-09 21:36:00,
2013-04-09 17:41:00,47.7,42.2,30.01,North,355,5.0,5.0,81,0.00,,,0.01,Wunderground v.1.15,2013-04-09 21:41:00,
2013-04-09 17:46:00,47.5,42.6,30.01,NNE,17,6.0,7.0,83,0.00,,,0.01,Wunderground v.1.15,2013-04-09 21:46:00,
2013-04-09 17:51:00,47.1,42.5,30.01,NNE,16,4.0,5.0,84,0.00,,,0.02,Wunderground v.1.15,2013-04-09 21:51:00,
2013-04-09 17:56:00,46.6,42.0,30.00,North,5,5.0,9.0,84,0.00,,,0.02,Wunderground v.1.15,2013-04-09 21:56:00,
2013-04-09 18:01:00,46.1,41.8,30.00,ENE,58,4.0,8.0,85,0.00,,,0.02,Wunderground v.1.15,2013-04-09 22:01:00,
2013-04-09 18:06:00,45.6,41.7,30.00,NNE,13,6.0,10.0,86,0.00,,,0.02,Wunderground v.1.15,2013-04-09 22:06:00,
2013-04-09 18:12:00,45.1,41.5,30.00,ENE,76,2.0,6.0,87,0.00,,,0.02,Wunderground v.1.15,2013-04-09 22:12:00,
2013-04-09 18:17:00,44.8,41.5,29.99,ENE,57,4.0,8.0,88,0.00,,,0.02,Wunderground v.1.15,2013-04-09 22:17:00,
2013-04-09 18:22:00,44.6,41.6,29.99,North,11,1.0,7.0,89,0.00,,,0.02,Wunderground v.1.15,2013-04-09 22:22:00,
2013-04-09 18:27:00,44.4,41.4,29.99,ENE,60,1.0,8.0,89,0.00,,,0.02,Wunderground v.1.15,2013-04-09 22:27:00,
2013-04-09 18:32:00,44.2,41.2,29.99,NNW,347,6.0,8.0,89,0.00,,,0.02,Wunderground v.1.15,2013-04-09 22:32:00,
2013-04-09 18:37:00,44.0,41.3,30.00,NNE,15,1.0,8.0,90,0.00,,,0.02,Wunderground v.1.15,2013-04-09 22:37:00,
2013-04-09 18:42:00,43.9,41.2,30.00,North,11,4.0,7.0,90,0.00,,,0.02,Wunderground v.1.15,2013-04-09 22:42:00,
2013-04-09 18:48:00,43.7,41.0,29.98,ENE,64,4.0,7.0,90,0.00,,,0.02,Wunderground v.1.15,2013-04-09 22:48:00,
2013-04-09 18:53:00,43.5,40.8,29.98,East,88,2.0,6.0,90,0.00,,,0.02,Wunderground v.1.15,2013-04-09 22:53:00,
2013-04-09 18:58:00,43.5,41.0,30.00,ENE,65,3.0,6.0,91,0.00,,,0.02,Wunderground v.1.15,2013-04-09 22:58:00,
2013-04-09 19:03:00,43.4,40.9,30.01,NE,43,2.0,7.0,91,0.00,,,0.02,Wunderground v.1.15,2013-04-09 23:03:00,
2013-04-09 19:08:00,43.3,40.8,30.00,NE,44,4.0,7.0,91,0.00,,,0.03,Wunderground v.1.15,2013-04-09 23:08:00,
2013-04-09 19:14:00,43.3,40.8,30.00,NNE,12,4.0,6.0,91,0.00,,,0.03,Wunderground v.1.15,2013-04-09 23:14:00,
2013-04-09 19:19:00,43.3,41.1,30.00,North,360,7.0,7.0,92,0.00,,,0.03,Wunderground v.1.15,2013-04-09 23:19:00,
2013-04-09 19:24:00,43.2,41.0,29.99,East,80,7.0,8.0,92,0.00,,,0.03,Wunderground v.1.15,2013-04-09 23:24:00,
2013-04-09 19:29:00,43.1,40.9,30.00,NNE,12,4.0,8.0,92,0.00,,,0.04,Wunderground v.1.15,2013-04-09 23:29:00,
2013-04-09 19:34:00,43.1,41.2,29.98,ENE,72,3.0,6.0,93,0.00,,,0.04,Wunderground v.1.15,2013-04-09 23:34:00,
2013-04-09 19:39:00,42.9,41.0,29.99,ENE,59,4.0,6.0,93,0.00,,,0.04,Wunderground v.1.15,2013-04-09 23:39:00,
2013-04-09 19:44:00,42.8,40.9,29.99,NNE,18,4.0,5.0,93,0.00,,,0.04,Wunderground v.1.15,2013-04-09 23:44:00,
2013-04-09 19:49:00,42.8,40.9,29.99,NNE,18,0.0,5.0,93,0.00,,,0.04,Wunderground v.1.15,2013-04-09 23:49:00,
2013-04-09 19:54:00,42.9,41.0,29.99,NE,45,2.0,3.0,93,0.00,,,0.04,Wunderground v.1.15,2013-04-09 23:54:00,
2013-04-09 19:59:00,42.9,41.0,29.99,NE,45,1.0,3.0,93,0.00,,,0.04,Wunderground v.1.15,2013-04-09 23:59:00,
2013-04-09 20:04:00,42.9,41.0,29.98,ESE,115,2.0,3.0,93,0.00,,,0.05,Wunderground v.1.15,2013-04-10 00:04:00,
2013-04-09 20:09:00,42.9,41.0,29.98,ESE,115,0.0,3.0,93,0.08,,,0.06,Wunderground v.1.15,2013-04-10 00:09:00,
2013-04-09 20:14:00,42.9,41.3,29.98,ESE,115,2.0,2.0,94,0.11,,,0.07,Wunderground v.1.15,2013-04-10 00:14:00,
2013-04-09 20:19:00,42.9,41.3,29.98,ESE,121,2.0,2.0,94,0.09,,,0.07,Wunderground v.1.15,2013-04-10 00:19:00,
2013-04-09 20:24:00,43.0,41.4,29.97,ESE,117,1.0,3.0,94,0.08,,,0.08,Wunderground v.1.15,2013-04-10 00:24:00,
2013-04-09 20:29:00,43.1,41.5,29.97,ESE,117,1.0,3.0,94,0.10,,,0.09,Wunderground v.1.15,2013-04-10 00:29:00,
2013-04-09 20:34:00,43.3,42.0,29.97,ESE,116,0.0,4.0,95,0.13,,,0.10,Wunderground v.1.15,2013-04-10 00:34:00,
2013-04-09 20:39:00,43.4,41.8,29.97,ESE,116,0.0,4.0,94,0.09,,,0.11,Wunderground v.1.15,2013-04-10 00:39:00,
2013-04-09 20:44:00,43.5,41.9,29.96,ESE,120,3.0,4.0,94,0.09,,,0.11,Wunderground v.1.15,2013-04-10 00:44:00,
2013-04-09 20:49:00,43.4,41.8,29.96,ESE,120,1.0,4.0,94,0.08,,,0.12,Wunderground v.1.15,2013-04-10 00:49:00,
2013-04-09 20:54:00,43.4,41.8,29.96,ESE,121,0.0,3.0,94,0.07,,,0.12,Wunderground v.1.15,2013-04-10 00:54:00,
2013-04-09 20:59:00,43.4,42.1,29.96,SE,133,0.0,3.0,95,0.04,,,0.12,Wunderground v.1.15,2013-04-10 00:59:00,
2013-04-09 21:04:00,43.5,42.2,29.95,SE,136,2.0,3.0,95,0.04,,,0.13,Wunderground v.1.15,2013-04-10 01:04:00,
2013-04-09 21:09:00,43.5,42.2,29.95,SSE,150,0.0,3.0,95,0.04,,,0.13,Wunderground v.1.15,2013-04-10 01:09:00,
2013-04-09 21:14:00,43.6,42.3,29.94,East,98,3.0,4.0,95,0.04,,,0.13,Wunderground v.1.15,2013-04-10 01:14:00,
2013-04-09 21:19:00,43.8,42.5,29.93,East,99,0.0,4.0,95,0.00,,,0.13,Wunderground v.1.15,2013-04-10 01:19:00,
2013-04-09 21:24:00,43.9,42.6,29.93,SE,138,3.0,7.0,95,0.00,,,0.14,Wunderground v.1.15,2013-04-10 01:24:00,
2013-04-09 21:29:00,44.0,42.7,29.93,SE,140,7.0,9.0,95,0.00,,,0.14,Wunderground v.1.15,2013-04-10 01:29:00,
2013-04-09 21:34:00,44.1,42.8,29.92,SE,124,3.0,7.0,95,0.00,,,0.14,Wunderground v.1.15,2013-04-10 01:34:00,
2013-04-09 21:39:00,44.1,43.0,29.92,SE,138,2.0,7.0,96,0.00,,,0.14,Wunderground v.1.15,2013-04-10 01:39:00,
2013-04-09 21:44:00,44.3,43.2,29.93,SE,138,3.0,6.0,96,0.00,,,0.14,Wunderground v.1.15,2013-04-10 01:44:00,
2013-04-09 21:49:00,44.5,43.4,29.95,South,177,2.0,6.0,96,0.00,,,0.14,Wunderground v.1.15,2013-04-10 01:49:00,
2013-04-09 21:54:00,44.6,43.5,29.95,South,177,0.0,2.0,96,0.00,,,0.14,Wunderground v.1.15,2013-04-10 01:54:00,
2013-04-09 21:59:00,44.8,43.7,29.95,SE,143,0.0,3.0,96,0.00,,,0.15,Wunderground v.1.15,2013-04-10 01:59:00,
2013-04-09 22:04:00,44.9,43.8,29.97,WNW,294,3.0,3.0,96,0.12,,,0.16,Wunderground v.1.15,2013-04-10 02:04:00,
2013-04-09 22:09:00,45.0,43.9,29.99,WNW,294,3.0,4.0,96,0.29,,,0.19,Wunderground v.1.15,2013-04-10 02:09:00,
2013-04-09 22:14:00,45.2,44.1,29.99,SSE,151,3.0,4.0,96,0.61,,,0.23,Wunderground v.1.15,2013-04-10 02:14:00,
2013-04-09 22:19:00,45.2,44.1,29.95,SE,146,2.0,4.0,96,0.52,,,0.28,Wunderground v.1.15,2013-04-10 02:19:00,
2013-04-09 22:24:00,45.2,44.1,29.94,East,84,3.0,3.0,96,0.40,,,0.32,Wunderground v.1.15,2013-04-10 02:24:00,
2013-04-09 22:29:00,45.3,44.2,29.94,WSW,247,1.0,6.0,96,0.37,,,0.35,Wunderground v.1.15,2013-04-10 02:29:00,
2013-04-09 22:34:00,45.3,44.2,29.94,South,186,1.0,6.0,96,0.43,,,0.38,Wunderground v.1.15,2013-04-10 02:34:00,
2013-04-09 22:39:00,45.3,44.2,29.94,SSE,153,0.0,6.0,96,0.32,,,0.41,Wunderground v.1.15,2013-04-10 02:39:00,
2013-04-09 22:44:00,45.4,44.3,29.93,East,85,5.0,5.0,96,0.33,,,0.43,Wunderground v.1.15,2013-04-10 02:44:00,
2013-04-09 22:49:00,45.4,44.3,29.92,SSE,150,3.0,5.0,96,0.34,,,0.46,Wunderground v.1.15,2013-04-10 02:49:00,
2013-04-09 22:54:00,45.4,44.3,29.92,South,190,2.0,8.0,96,0.32,,,0.48,Wunderground v.1.15,2013-04-10 02:54:00,
2013-04-09 22:59:00,45.5,44.4,29.92,East,87,5.0,8.0,96,0.43,,,0.52,Wunderground v.1.15,2013-04-10 02:59:00,
2013-04-09 23:04:00,45.7,44.6,29.92,ESE,110,2.0,6.0,96,0.18,,,0.54,Wunderground v.1.15,2013-04-10 03:04:00,
2013-04-09 23:09:00,45.8,44.7,29.92,ESE,115,4.0,6.0,96,0.38,,,0.57,Wunderground v.1.15,2013-04-10 03:09:00,
2013-04-09 23:14:00,45.9,45.1,29.90,SE,138,5.0,9.0,97,0.28,,,0.59,Wunderground v.1.15,2013-04-10 03:14:00,
2013-04-09 23:19:00,46.0,45.2,29.91,WNW,290,3.0,9.0,97,0.12,,,0.60,Wunderground v.1.15,2013-04-10 03:19:00,
2013-04-09 23:24:00,46.1,45.3,29.91,WNW,282,0.0,4.0,97,0.07,,,0.61,Wunderground v.1.15,2013-04-10 03:24:00,
2013-04-09 23:29:00,46.2,45.1,29.90,ESE,112,3.0,4.0,96,0.07,,,0.61,Wunderground v.1.15,2013-04-10 03:29:00,
2013-04-09 23:34:00,46.3,45.5,29.91,East,95,0.0,5.0,97,0.05,,,0.61,Wunderground v.1.15,2013-04-10 03:34:00,
2013-04-09 23:39:00,46.4,45.6,29.92,ENE,68,2.0,5.0,97,0.04,,,0.61,Wunderground v.1.15,2013-04-10 03:39:00,
2013-04-09 23:44:00,46.5,45.7,29.91,ENE,61,2.0,3.0,97,0.00,,,0.61,Wunderground v.1.15,2013-04-10 03:44:00,
2013-04-09 23:49:00,46.6,45.8,29.92,North,5,2.0,4.0,97,0.00,,,0.61,Wunderground v.1.15,2013-04-10 03:49:00,
2013-04-09 23:54:00,46.6,45.8,29.93,NNE,13,6.0,7.0,97,0.00,,,0.61,Wunderground v.1.15,2013-04-10 03:54:00,
2013-04-09 23:59:00,46.0,44.9,29.94,NNE,17,7.0,10.0,96,0.00,,,0.61,Wunderground v.1.15,2013-04-10 03:59:00,